sensor_id;sensor_type;location;lat;lon;timestamp;P1;durP1;ratioP1;P2;durP2;ratioP2
64597;SDS011;51004;54.692;9.332;2023-05-28T00:00:48;11.13;;;5.50;;
64597;SDS011;51004;54.692;9.332;2023-05-28T00:03:14;11.48;;;5.40;;
64597;SDS011;51004;54.692;9.332;2023-05-28T00:05:46;11.48;;;5.43;;
64597;SDS011;51004;54.692;9.332;2023-05-28T00:08:14;11.65;;;5.72;;
64597;SDS011;51004;54.692;9.332;2023-05-28T00:10:41;9.77;;;4.70;;
64597;SDS011;51004;54.692;9.332;2023-05-28T00:13:07;10.00;;;5.55;;
64597;SDS011;51004;54.692;9.332;2023-05-28T00:15:33;11.63;;;6.43;;
64597;SDS011;51004;54.692;9.332;2023-05-28T00:18:00;12.80;;;5.65;;
64597;SDS011;51004;54.692;9.332;2023-05-28T00:20:26;9.40;;;4.85;;
64597;SDS011;51004;54.692;9.332;2023-05-28T00:22:52;14.00;;;5.45;;
64597;SDS011;51004;54.692;9.332;2023-05-28T00:25:18;10.23;;;6.60;;
64597;SDS011;51004;54.692;9.332;2023-05-28T00:27:44;12.60;;;5.35;;
64597;SDS011;51004;54.692;9.332;2023-05-28T00:30:10;10.25;;;5.15;;
64597;SDS011;51004;54.692;9.332;2023-05-28T00:32:36;12.90;;;5.35;;
64597;SDS011;51004;54.692;9.332;2023-05-28T00:35:02;12.07;;;5.88;;
64597;SDS011;51004;54.692;9.332;2023-05-28T00:37:28;13.30;;;5.90;;
64597;SDS011;51004;54.692;9.332;2023-05-28T00:39:54;11.27;;;5.72;;
64597;SDS011;51004;54.692;9.332;2023-05-28T00:42:20;10.95;;;5.30;;
64597;SDS011;51004;54.692;9.332;2023-05-28T00:44:46;17.10;;;6.07;;
64597;SDS011;51004;54.692;9.332;2023-05-28T00:47:13;13.15;;;5.65;;
64597;SDS011;51004;54.692;9.332;2023-05-28T00:49:39;12.98;;;5.78;;
64597;SDS011;51004;54.692;9.332;2023-05-28T00:52:06;11.55;;;5.13;;
64597;SDS011;51004;54.692;9.332;2023-05-28T00:54:32;10.45;;;5.50;;
64597;SDS011;51004;54.692;9.332;2023-05-28T00:56:59;15.40;;;6.45;;
64597;SDS011;51004;54.692;9.332;2023-05-28T00:59:25;11.57;;;5.88;;
64597;SDS011;51004;54.692;9.332;2023-05-28T01:01:52;12.73;;;5.47;;
64597;SDS011;51004;54.692;9.332;2023-05-28T01:04:17;13.70;;;5.45;;
64597;SDS011;51004;54.692;9.332;2023-05-28T01:06:43;13.40;;;5.88;;
64597;SDS011;51004;54.692;9.332;2023-05-28T01:09:10;11.95;;;5.53;;
64597;SDS011;51004;54.692;9.332;2023-05-28T01:11:40;12.02;;;6.22;;
64597;SDS011;51004;54.692;9.332;2023-05-28T01:14:06;11.82;;;6.40;;
64597;SDS011;51004;54.692;9.332;2023-05-28T01:16:32;11.65;;;6.72;;
64597;SDS011;51004;54.692;9.332;2023-05-28T01:19:00;12.63;;;6.38;;
64597;SDS011;51004;54.692;9.332;2023-05-28T01:21:26;15.55;;;6.22;;
64597;SDS011;51004;54.692;9.332;2023-05-28T01:23:53;14.57;;;6.75;;
64597;SDS011;51004;54.692;9.332;2023-05-28T01:26:19;9.75;;;5.18;;
64597;SDS011;51004;54.692;9.332;2023-05-28T01:28:45;15.30;;;6.13;;
64597;SDS011;51004;54.692;9.332;2023-05-28T01:31:12;11.65;;;6.22;;
64597;SDS011;51004;54.692;9.332;2023-05-28T01:33:41;10.98;;;6.10;;
64597;SDS011;51004;54.692;9.332;2023-05-28T01:36:08;12.32;;;6.35;;
64597;SDS011;51004;54.692;9.332;2023-05-28T01:38:35;14.20;;;5.93;;
64597;SDS011;51004;54.692;9.332;2023-05-28T01:41:04;11.48;;;6.63;;
64597;SDS011;51004;54.692;9.332;2023-05-28T01:43:30;9.68;;;5.38;;
64597;SDS011;51004;54.692;9.332;2023-05-28T01:45:56;11.65;;;5.93;;
64597;SDS011;51004;54.692;9.332;2023-05-28T01:48:22;10.77;;;5.55;;
64597;SDS011;51004;54.692;9.332;2023-05-28T01:50:49;12.32;;;6.35;;
64597;SDS011;51004;54.692;9.332;2023-05-28T01:53:15;9.70;;;5.95;;
64597;SDS011;51004;54.692;9.332;2023-05-28T01:55:41;15.15;;;6.32;;
64597;SDS011;51004;54.692;9.332;2023-05-28T01:58:07;10.95;;;6.80;;
64597;SDS011;51004;54.692;9.332;2023-05-28T02:00:33;11.10;;;6.90;;
64597;SDS011;51004;54.692;9.332;2023-05-28T02:03:01;15.70;;;6.95;;
64597;SDS011;51004;54.692;9.332;2023-05-28T02:05:29;11.25;;;6.28;;
64597;SDS011;51004;54.692;9.332;2023-05-28T02:07:55;12.43;;;6.93;;
64597;SDS011;51004;54.692;9.332;2023-05-28T02:10:23;14.30;;;6.65;;
64597;SDS011;51004;54.692;9.332;2023-05-28T02:12:50;10.63;;;6.63;;
64597;SDS011;51004;54.692;9.332;2023-05-28T02:15:15;13.60;;;6.97;;
64597;SDS011;51004;54.692;9.332;2023-05-28T02:17:42;15.20;;;7.10;;
64597;SDS011;51004;54.692;9.332;2023-05-28T02:20:08;11.07;;;6.47;;
64597;SDS011;51004;54.692;9.332;2023-05-28T02:22:35;15.30;;;7.00;;
64597;SDS011;51004;54.692;9.332;2023-05-28T02:25:01;11.57;;;6.57;;
64597;SDS011;51004;54.692;9.332;2023-05-28T02:27:27;13.02;;;6.32;;
64597;SDS011;51004;54.692;9.332;2023-05-28T02:29:53;14.23;;;6.70;;
64597;SDS011;51004;54.692;9.332;2023-05-28T02:32:19;14.43;;;6.53;;
64597;SDS011;51004;54.692;9.332;2023-05-28T02:34:46;21.35;;;7.97;;
64597;SDS011;51004;54.692;9.332;2023-05-28T02:37:12;14.32;;;7.60;;
64597;SDS011;51004;54.692;9.332;2023-05-28T02:39:38;13.18;;;7.05;;
64597;SDS011;51004;54.692;9.332;2023-05-28T02:42:04;14.73;;;7.20;;
64597;SDS011;51004;54.692;9.332;2023-05-28T02:44:30;14.65;;;7.35;;
64597;SDS011;51004;54.692;9.332;2023-05-28T02:46:56;18.10;;;8.05;;
64597;SDS011;51004;54.692;9.332;2023-05-28T02:49:22;13.68;;;7.30;;
64597;SDS011;51004;54.692;9.332;2023-05-28T02:51:48;16.15;;;7.88;;
64597;SDS011;51004;54.692;9.332;2023-05-28T02:54:14;12.82;;;8.35;;
64597;SDS011;51004;54.692;9.332;2023-05-28T02:56:40;13.52;;;7.25;;
64597;SDS011;51004;54.692;9.332;2023-05-28T02:59:06;16.10;;;7.75;;
64597;SDS011;51004;54.692;9.332;2023-05-28T03:01:32;15.93;;;7.72;;
64597;SDS011;51004;54.692;9.332;2023-05-28T03:03:58;11.98;;;7.50;;
64597;SDS011;51004;54.692;9.332;2023-05-28T03:06:24;13.48;;;6.97;;
64597;SDS011;51004;54.692;9.332;2023-05-28T03:08:50;14.25;;;7.50;;
64597;SDS011;51004;54.692;9.332;2023-05-28T03:11:16;17.35;;;9.18;;
64597;SDS011;51004;54.692;9.332;2023-05-28T03:13:41;12.90;;;7.78;;
64597;SDS011;51004;54.692;9.332;2023-05-28T03:16:07;10.93;;;7.03;;
64597;SDS011;51004;54.692;9.332;2023-05-28T03:18:33;19.17;;;8.55;;
64597;SDS011;51004;54.692;9.332;2023-05-28T03:20:59;15.68;;;8.02;;
64597;SDS011;51004;54.692;9.332;2023-05-28T03:23:26;14.18;;;7.93;;
64597;SDS011;51004;54.692;9.332;2023-05-28T03:25:52;12.32;;;8.15;;
64597;SDS011;51004;54.692;9.332;2023-05-28T03:28:18;16.15;;;7.80;;
64597;SDS011;51004;54.692;9.332;2023-05-28T03:30:44;17.05;;;8.38;;
64597;SDS011;51004;54.692;9.332;2023-05-28T03:33:10;15.20;;;7.97;;
64597;SDS011;51004;54.692;9.332;2023-05-28T03:35:36;13.90;;;7.75;;
64597;SDS011;51004;54.692;9.332;2023-05-28T03:38:01;12.50;;;7.70;;
64597;SDS011;51004;54.692;9.332;2023-05-28T03:40:27;10.00;;;7.25;;
64597;SDS011;51004;54.692;9.332;2023-05-28T03:42:53;18.38;;;8.95;;
64597;SDS011;51004;54.692;9.332;2023-05-28T03:45:19;14.38;;;8.02;;
64597;SDS011;51004;54.692;9.332;2023-05-28T03:47:49;12.77;;;7.97;;
64597;SDS011;51004;54.692;9.332;2023-05-28T03:50:15;14.00;;;8.05;;
64597;SDS011;51004;54.692;9.332;2023-05-28T03:52:41;11.75;;;7.82;;
64597;SDS011;51004;54.692;9.332;2023-05-28T03:55:07;14.48;;;7.78;;
64597;SDS011;51004;54.692;9.332;2023-05-28T03:57:33;17.35;;;8.40;;
64597;SDS011;51004;54.692;9.332;2023-05-28T03:59:59;15.27;;;8.05;;
64597;SDS011;51004;54.692;9.332;2023-05-28T04:02:26;13.43;;;8.00;;
64597;SDS011;51004;54.692;9.332;2023-05-28T04:04:51;15.82;;;7.38;;
64597;SDS011;51004;54.692;9.332;2023-05-28T04:07:17;15.30;;;8.10;;
64597;SDS011;51004;54.692;9.332;2023-05-28T04:09:43;15.55;;;8.18;;
64597;SDS011;51004;54.692;9.332;2023-05-28T04:12:09;11.98;;;7.90;;
64597;SDS011;51004;54.692;9.332;2023-05-28T04:14:37;16.58;;;7.53;;
64597;SDS011;51004;54.692;9.332;2023-05-28T04:17:04;14.98;;;8.10;;
64597;SDS011;51004;54.692;9.332;2023-05-28T04:19:30;9.55;;;7.28;;
64597;SDS011;51004;54.692;9.332;2023-05-28T04:21:56;12.82;;;8.13;;
64597;SDS011;51004;54.692;9.332;2023-05-28T04:24:22;14.68;;;7.88;;
64597;SDS011;51004;54.692;9.332;2023-05-28T04:26:48;12.45;;;7.68;;
64597;SDS011;51004;54.692;9.332;2023-05-28T04:29:14;12.48;;;7.32;;
64597;SDS011;51004;54.692;9.332;2023-05-28T04:31:40;15.05;;;8.25;;
64597;SDS011;51004;54.692;9.332;2023-05-28T04:34:06;13.23;;;7.82;;
64597;SDS011;51004;54.692;9.332;2023-05-28T04:36:32;13.50;;;7.55;;
64597;SDS011;51004;54.692;9.332;2023-05-28T04:39:01;15.85;;;7.78;;
64597;SDS011;51004;54.692;9.332;2023-05-28T04:41:29;14.25;;;7.82;;
64597;SDS011;51004;54.692;9.332;2023-05-28T04:43:55;15.63;;;8.30;;
64597;SDS011;51004;54.692;9.332;2023-05-28T04:46:21;13.60;;;7.95;;
64597;SDS011;51004;54.692;9.332;2023-05-28T04:48:50;14.95;;;7.35;;
64597;SDS011;51004;54.692;9.332;2023-05-28T04:51:16;18.33;;;8.05;;
64597;SDS011;51004;54.692;9.332;2023-05-28T04:53:43;15.10;;;8.57;;
64597;SDS011;51004;54.692;9.332;2023-05-28T04:56:09;16.45;;;8.35;;
64597;SDS011;51004;54.692;9.332;2023-05-28T04:58:35;14.50;;;7.50;;
64597;SDS011;51004;54.692;9.332;2023-05-28T05:01:01;13.88;;;7.65;;
64597;SDS011;51004;54.692;9.332;2023-05-28T05:03:28;14.32;;;7.53;;
64597;SDS011;51004;54.692;9.332;2023-05-28T05:05:54;17.15;;;7.55;;
64597;SDS011;51004;54.692;9.332;2023-05-28T05:08:19;18.45;;;7.40;;
64597;SDS011;51004;54.692;9.332;2023-05-28T05:10:45;19.88;;;8.35;;
64597;SDS011;51004;54.692;9.332;2023-05-28T05:13:12;19.42;;;8.30;;
64597;SDS011;51004;54.692;9.332;2023-05-28T05:15:38;13.40;;;7.18;;
64597;SDS011;51004;54.692;9.332;2023-05-28T05:18:04;20.00;;;7.20;;
64597;SDS011;51004;54.692;9.332;2023-05-28T05:20:30;14.25;;;6.95;;
64597;SDS011;51004;54.692;9.332;2023-05-28T05:22:56;17.83;;;7.05;;
64597;SDS011;51004;54.692;9.332;2023-05-28T05:25:22;17.67;;;7.30;;
64597;SDS011;51004;54.692;9.332;2023-05-28T05:27:51;16.05;;;7.53;;
64597;SDS011;51004;54.692;9.332;2023-05-28T05:30:17;22.65;;;8.95;;
64597;SDS011;51004;54.692;9.332;2023-05-28T05:32:43;15.70;;;9.02;;
64597;SDS011;51004;54.692;9.332;2023-05-28T05:35:09;13.07;;;8.55;;
64597;SDS011;51004;54.692;9.332;2023-05-28T05:37:36;15.18;;;7.88;;
64597;SDS011;51004;54.692;9.332;2023-05-28T05:40:02;20.88;;;8.65;;
64597;SDS011;51004;54.692;9.332;2023-05-28T05:42:30;16.73;;;8.15;;
64597;SDS011;51004;54.692;9.332;2023-05-28T05:44:56;19.10;;;8.45;;
64597;SDS011;51004;54.692;9.332;2023-05-28T05:47:22;14.75;;;7.20;;
64597;SDS011;51004;54.692;9.332;2023-05-28T05:49:48;15.63;;;6.80;;
64597;SDS011;51004;54.692;9.332;2023-05-28T05:52:14;17.58;;;7.43;;
64597;SDS011;51004;54.692;9.332;2023-05-28T05:54:40;17.15;;;7.65;;
64597;SDS011;51004;54.692;9.332;2023-05-28T05:57:06;17.65;;;7.05;;
64597;SDS011;51004;54.692;9.332;2023-05-28T05:59:32;16.95;;;7.00;;
64597;SDS011;51004;54.692;9.332;2023-05-28T06:01:58;15.82;;;7.65;;
64597;SDS011;51004;54.692;9.332;2023-05-28T06:04:24;16.23;;;7.00;;
64597;SDS011;51004;54.692;9.332;2023-05-28T06:06:58;16.92;;;6.70;;
64597;SDS011;51004;54.692;9.332;2023-05-28T06:09:31;17.25;;;7.22;;
64597;SDS011;51004;54.692;9.332;2023-05-28T06:11:57;15.00;;;7.47;;
64597;SDS011;51004;54.692;9.332;2023-05-28T06:14:23;16.75;;;7.15;;
64597;SDS011;51004;54.692;9.332;2023-05-28T06:16:49;15.43;;;6.13;;
64597;SDS011;51004;54.692;9.332;2023-05-28T06:19:15;17.58;;;6.45;;
64597;SDS011;51004;54.692;9.332;2023-05-28T06:21:43;15.88;;;6.25;;
64597;SDS011;51004;54.692;9.332;2023-05-28T06:24:08;14.05;;;6.85;;
64597;SDS011;51004;54.692;9.332;2023-05-28T06:26:34;15.57;;;6.22;;
64597;SDS011;51004;54.692;9.332;2023-05-28T06:29:00;17.02;;;6.72;;
64597;SDS011;51004;54.692;9.332;2023-05-28T06:31:26;17.02;;;6.60;;
64597;SDS011;51004;54.692;9.332;2023-05-28T06:33:52;15.60;;;6.30;;
64597;SDS011;51004;54.692;9.332;2023-05-28T06:36:19;19.77;;;5.88;;
64597;SDS011;51004;54.692;9.332;2023-05-28T06:38:46;13.20;;;5.13;;
64597;SDS011;51004;54.692;9.332;2023-05-28T06:41:12;19.63;;;7.05;;
64597;SDS011;51004;54.692;9.332;2023-05-28T06:43:38;13.50;;;5.20;;
64597;SDS011;51004;54.692;9.332;2023-05-28T06:46:04;16.60;;;4.97;;
64597;SDS011;51004;54.692;9.332;2023-05-28T06:48:31;15.13;;;5.25;;
64597;SDS011;51004;54.692;9.332;2023-05-28T06:50:57;18.30;;;5.78;;
64597;SDS011;51004;54.692;9.332;2023-05-28T06:53:24;14.88;;;5.15;;
64597;SDS011;51004;54.692;9.332;2023-05-28T06:55:50;12.88;;;5.10;;
64597;SDS011;51004;54.692;9.332;2023-05-28T06:58:16;14.48;;;5.10;;
64597;SDS011;51004;54.692;9.332;2023-05-28T07:00:42;17.20;;;6.05;;
64597;SDS011;51004;54.692;9.332;2023-05-28T07:03:08;10.68;;;5.05;;
64597;SDS011;51004;54.692;9.332;2023-05-28T07:05:34;15.07;;;5.57;;
64597;SDS011;51004;54.692;9.332;2023-05-28T07:08:01;11.07;;;4.97;;
64597;SDS011;51004;54.692;9.332;2023-05-28T07:10:27;13.00;;;5.53;;
64597;SDS011;51004;54.692;9.332;2023-05-28T07:12:53;10.15;;;5.20;;
64597;SDS011;51004;54.692;9.332;2023-05-28T07:15:19;12.32;;;5.72;;
64597;SDS011;51004;54.692;9.332;2023-05-28T07:17:46;13.38;;;5.65;;
64597;SDS011;51004;54.692;9.332;2023-05-28T07:20:12;16.40;;;5.80;;
64597;SDS011;51004;54.692;9.332;2023-05-28T07:22:38;12.38;;;5.30;;
64597;SDS011;51004;54.692;9.332;2023-05-28T07:25:05;17.38;;;5.38;;
64597;SDS011;51004;54.692;9.332;2023-05-28T07:27:31;14.45;;;5.53;;
64597;SDS011;51004;54.692;9.332;2023-05-28T07:29:57;14.85;;;5.65;;
64597;SDS011;51004;54.692;9.332;2023-05-28T07:32:23;12.02;;;5.32;;
64597;SDS011;51004;54.692;9.332;2023-05-28T07:34:49;12.23;;;5.13;;
64597;SDS011;51004;54.692;9.332;2023-05-28T07:37:15;14.10;;;5.70;;
64597;SDS011;51004;54.692;9.332;2023-05-28T07:39:41;15.13;;;6.10;;
64597;SDS011;51004;54.692;9.332;2023-05-28T07:42:07;11.57;;;4.47;;
64597;SDS011;51004;54.692;9.332;2023-05-28T07:44:33;13.23;;;4.38;;
64597;SDS011;51004;54.692;9.332;2023-05-28T07:46:59;11.48;;;4.55;;
64597;SDS011;51004;54.692;9.332;2023-05-28T07:49:24;12.60;;;4.80;;
64597;SDS011;51004;54.692;9.332;2023-05-28T07:51:50;12.27;;;4.75;;
64597;SDS011;51004;54.692;9.332;2023-05-28T07:54:16;14.50;;;5.45;;
64597;SDS011;51004;54.692;9.332;2023-05-28T07:56:42;10.85;;;4.40;;
64597;SDS011;51004;54.692;9.332;2023-05-28T07:59:09;15.32;;;4.78;;
64597;SDS011;51004;54.692;9.332;2023-05-28T08:01:36;11.43;;;4.60;;
64597;SDS011;51004;54.692;9.332;2023-05-28T08:04:02;11.90;;;4.60;;
64597;SDS011;51004;54.692;9.332;2023-05-28T08:06:28;10.68;;;4.15;;
64597;SDS011;51004;54.692;9.332;2023-05-28T08:08:54;11.40;;;3.92;;
64597;SDS011;51004;54.692;9.332;2023-05-28T08:11:20;13.45;;;5.03;;
64597;SDS011;51004;54.692;9.332;2023-05-28T08:13:46;8.93;;;3.80;;
64597;SDS011;51004;54.692;9.332;2023-05-28T08:16:12;8.77;;;4.13;;
64597;SDS011;51004;54.692;9.332;2023-05-28T08:18:38;9.40;;;3.28;;
64597;SDS011;51004;54.692;9.332;2023-05-28T08:21:04;8.93;;;3.85;;
64597;SDS011;51004;54.692;9.332;2023-05-28T08:23:31;12.05;;;4.65;;
64597;SDS011;51004;54.692;9.332;2023-05-28T08:26:00;11.80;;;4.40;;
64597;SDS011;51004;54.692;9.332;2023-05-28T08:28:26;14.73;;;5.30;;
64597;SDS011;51004;54.692;9.332;2023-05-28T08:30:52;8.88;;;3.42;;
64597;SDS011;51004;54.692;9.332;2023-05-28T08:33:18;8.07;;;3.35;;
64597;SDS011;51004;54.692;9.332;2023-05-28T08:35:44;9.38;;;3.63;;
64597;SDS011;51004;54.692;9.332;2023-05-28T08:38:10;9.48;;;3.28;;
64597;SDS011;51004;54.692;9.332;2023-05-28T08:40:38;10.93;;;4.28;;
64597;SDS011;51004;54.692;9.332;2023-05-28T08:43:05;5.20;;;2.55;;
64597;SDS011;51004;54.692;9.332;2023-05-28T08:45:32;7.05;;;2.90;;
64597;SDS011;51004;54.692;9.332;2023-05-28T08:47:58;7.55;;;3.25;;
64597;SDS011;51004;54.692;9.332;2023-05-28T08:50:25;8.95;;;3.03;;
64597;SDS011;51004;54.692;9.332;2023-05-28T08:52:52;9.93;;;3.42;;
64597;SDS011;51004;54.692;9.332;2023-05-28T08:55:19;8.13;;;2.83;;
64597;SDS011;51004;54.692;9.332;2023-05-28T08:57:45;5.75;;;2.42;;
64597;SDS011;51004;54.692;9.332;2023-05-28T09:00:12;5.40;;;2.25;;
64597;SDS011;51004;54.692;9.332;2023-05-28T09:02:38;5.85;;;2.67;;
64597;SDS011;51004;54.692;9.332;2023-05-28T09:05:05;4.25;;;2.17;;
64597;SDS011;51004;54.692;9.332;2023-05-28T09:07:31;4.50;;;2.10;;
64597;SDS011;51004;54.692;9.332;2023-05-28T09:09:57;5.82;;;2.05;;
64597;SDS011;51004;54.692;9.332;2023-05-28T09:12:23;3.70;;;2.00;;
64597;SDS011;51004;54.692;9.332;2023-05-28T09:14:50;6.68;;;2.80;;
64597;SDS011;51004;54.692;9.332;2023-05-28T09:17:17;6.22;;;2.30;;
64597;SDS011;51004;54.692;9.332;2023-05-28T09:19:50;7.45;;;2.15;;
64597;SDS011;51004;54.692;9.332;2023-05-28T09:22:17;6.75;;;2.00;;
64597;SDS011;51004;54.692;9.332;2023-05-28T09:24:47;4.82;;;1.98;;
64597;SDS011;51004;54.692;9.332;2023-05-28T09:27:13;3.88;;;1.90;;
64597;SDS011;51004;54.692;9.332;2023-05-28T09:29:44;3.97;;;2.15;;
64597;SDS011;51004;54.692;9.332;2023-05-28T09:32:10;6.97;;;2.35;;
64597;SDS011;51004;54.692;9.332;2023-05-28T09:34:40;4.88;;;2.00;;
64597;SDS011;51004;54.692;9.332;2023-05-28T09:37:09;4.65;;;2.40;;
64597;SDS011;51004;54.692;9.332;2023-05-28T09:39:35;6.25;;;2.75;;
64597;SDS011;51004;54.692;9.332;2023-05-28T09:42:02;5.28;;;2.20;;
64597;SDS011;51004;54.692;9.332;2023-05-28T09:44:32;7.85;;;3.10;;
64597;SDS011;51004;54.692;9.332;2023-05-28T09:46:58;8.27;;;2.95;;
64597;SDS011;51004;54.692;9.332;2023-05-28T09:49:27;6.95;;;2.80;;
64597;SDS011;51004;54.692;9.332;2023-05-28T09:51:53;7.70;;;3.25;;
64597;SDS011;51004;54.692;9.332;2023-05-28T09:54:20;10.02;;;3.78;;
64597;SDS011;51004;54.692;9.332;2023-05-28T09:56:47;7.22;;;3.00;;
64597;SDS011;51004;54.692;9.332;2023-05-28T09:59:13;5.75;;;2.60;;
64597;SDS011;51004;54.692;9.332;2023-05-28T10:01:41;5.75;;;2.45;;
64597;SDS011;51004;54.692;9.332;2023-05-28T10:04:12;8.45;;;2.80;;
64597;SDS011;51004;54.692;9.332;2023-05-28T10:06:40;9.68;;;2.85;;
64597;SDS011;51004;54.692;9.332;2023-05-28T10:09:09;7.03;;;3.03;;
64597;SDS011;51004;54.692;9.332;2023-05-28T10:11:39;4.90;;;2.67;;
64597;SDS011;51004;54.692;9.332;2023-05-28T10:14:08;6.53;;;2.70;;
64597;SDS011;51004;54.692;9.332;2023-05-28T10:16:35;6.05;;;3.03;;
64597;SDS011;51004;54.692;9.332;2023-05-28T10:19:01;5.90;;;2.70;;
64597;SDS011;51004;54.692;9.332;2023-05-28T10:21:27;6.70;;;3.00;;
64597;SDS011;51004;54.692;9.332;2023-05-28T10:23:54;6.38;;;2.83;;
64597;SDS011;51004;54.692;9.332;2023-05-28T10:26:20;5.05;;;3.00;;
64597;SDS011;51004;54.692;9.332;2023-05-28T10:28:52;7.40;;;3.30;;
64597;SDS011;51004;54.692;9.332;2023-05-28T10:31:18;6.55;;;3.35;;
64597;SDS011;51004;54.692;9.332;2023-05-28T10:33:46;7.78;;;3.30;;
64597;SDS011;51004;54.692;9.332;2023-05-28T10:36:13;4.85;;;3.08;;
64597;SDS011;51004;54.692;9.332;2023-05-28T10:41:09;6.03;;;2.80;;
64597;SDS011;51004;54.692;9.332;2023-05-28T10:46:54;7.28;;;3.25;;
64597;SDS011;51004;54.692;9.332;2023-05-28T10:54:14;3.67;;;2.22;;
64597;SDS011;51004;54.692;9.332;2023-05-28T10:57:22;4.13;;;2.60;;
64597;SDS011;51004;54.692;9.332;2023-05-28T10:59:36;3.53;;;1.95;;
64597;SDS011;51004;54.692;9.332;2023-05-28T11:04:32;7.47;;;2.30;;
64597;SDS011;51004;54.692;9.332;2023-05-28T11:06:58;6.13;;;2.50;;
64597;SDS011;51004;54.692;9.332;2023-05-28T11:09:24;5.88;;;2.50;;
64597;SDS011;51004;54.692;9.332;2023-05-28T11:11:50;5.55;;;2.03;;
64597;SDS011;51004;54.692;9.332;2023-05-28T11:14:16;5.78;;;2.22;;
64597;SDS011;51004;54.692;9.332;2023-05-28T11:16:42;5.25;;;2.40;;
64597;SDS011;51004;54.692;9.332;2023-05-28T11:19:08;5.32;;;2.92;;
64597;SDS011;51004;54.692;9.332;2023-05-28T11:21:36;6.30;;;2.60;;
64597;SDS011;51004;54.692;9.332;2023-05-28T11:24:14;2.95;;;2.00;;
64597;SDS011;51004;54.692;9.332;2023-05-28T11:26:40;4.38;;;2.50;;
64597;SDS011;51004;54.692;9.332;2023-05-28T11:29:06;5.82;;;2.40;;
64597;SDS011;51004;54.692;9.332;2023-05-28T11:31:39;4.00;;;2.45;;
64597;SDS011;51004;54.692;9.332;2023-05-28T11:34:05;7.47;;;2.30;;
64597;SDS011;51004;54.692;9.332;2023-05-28T11:36:37;6.90;;;2.67;;
64597;SDS011;51004;54.692;9.332;2023-05-28T11:39:03;4.50;;;2.28;;
64597;SDS011;51004;54.692;9.332;2023-05-28T11:41:29;5.28;;;2.85;;
64597;SDS011;51004;54.692;9.332;2023-05-28T11:43:55;8.82;;;2.75;;
64597;SDS011;51004;54.692;9.332;2023-05-28T11:46:21;3.95;;;2.15;;
64597;SDS011;51004;54.692;9.332;2023-05-28T11:48:47;5.53;;;2.13;;
64597;SDS011;51004;54.692;9.332;2023-05-28T11:51:13;7.00;;;2.58;;
64597;SDS011;51004;54.692;9.332;2023-05-28T11:56:06;5.43;;;2.60;;
64597;SDS011;51004;54.692;9.332;2023-05-28T11:58:32;4.50;;;2.38;;
64597;SDS011;51004;54.692;9.332;2023-05-28T12:01:22;5.22;;;2.30;;
64597;SDS011;51004;54.692;9.332;2023-05-28T12:03:49;3.65;;;2.20;;
64597;SDS011;51004;54.692;9.332;2023-05-28T12:06:15;5.22;;;2.13;;
64597;SDS011;51004;54.692;9.332;2023-05-28T12:08:41;3.08;;;2.08;;
64597;SDS011;51004;54.692;9.332;2023-05-28T12:11:07;4.80;;;2.35;;
64597;SDS011;51004;54.692;9.332;2023-05-28T12:13:34;3.17;;;1.92;;
64597;SDS011;51004;54.692;9.332;2023-05-28T12:16:18;3.00;;;1.55;;
64597;SDS011;51004;54.692;9.332;2023-05-28T12:18:44;5.43;;;2.00;;
64597;SDS011;51004;54.692;9.332;2023-05-28T12:21:11;5.82;;;2.50;;
64597;SDS011;51004;54.692;9.332;2023-05-28T12:23:37;4.05;;;1.80;;
64597;SDS011;51004;54.692;9.332;2023-05-28T12:26:03;7.50;;;2.60;;
64597;SDS011;51004;54.692;9.332;2023-05-28T12:28:34;6.43;;;2.75;;
64597;SDS011;51004;54.692;9.332;2023-05-28T12:31:04;5.32;;;2.17;;
64597;SDS011;51004;54.692;9.332;2023-05-28T12:33:30;8.13;;;1.90;;
64597;SDS011;51004;54.692;9.332;2023-05-28T12:35:56;4.40;;;1.85;;
64597;SDS011;51004;54.692;9.332;2023-05-28T12:38:25;4.18;;;1.90;;
64597;SDS011;51004;54.692;9.332;2023-05-28T12:40:51;6.18;;;2.20;;
64597;SDS011;51004;54.692;9.332;2023-05-28T12:43:17;5.68;;;2.47;;
64597;SDS011;51004;54.692;9.332;2023-05-28T12:45:43;5.38;;;1.90;;
64597;SDS011;51004;54.692;9.332;2023-05-28T12:48:09;4.15;;;1.70;;
64597;SDS011;51004;54.692;9.332;2023-05-28T12:50:35;4.18;;;1.63;;
64597;SDS011;51004;54.692;9.332;2023-05-28T12:53:01;4.18;;;1.90;;
64597;SDS011;51004;54.692;9.332;2023-05-28T12:55:31;3.67;;;1.70;;
64597;SDS011;51004;54.692;9.332;2023-05-28T12:57:57;3.45;;;1.75;;
64597;SDS011;51004;54.692;9.332;2023-05-28T13:00:23;3.92;;;1.85;;
64597;SDS011;51004;54.692;9.332;2023-05-28T13:02:52;4.40;;;1.92;;
64597;SDS011;51004;54.692;9.332;2023-05-28T13:05:18;3.42;;;1.98;;
64597;SDS011;51004;54.692;9.332;2023-05-28T13:07:43;5.50;;;1.77;;
64597;SDS011;51004;54.692;9.332;2023-05-28T13:10:13;3.83;;;1.60;;
64597;SDS011;51004;54.692;9.332;2023-05-28T13:12:39;3.30;;;1.60;;
64597;SDS011;51004;54.692;9.332;2023-05-28T13:15:06;3.70;;;1.48;;
64597;SDS011;51004;54.692;9.332;2023-05-28T13:17:32;3.55;;;1.52;;
64597;SDS011;51004;54.692;9.332;2023-05-28T13:19:58;2.88;;;1.80;;
64597;SDS011;51004;54.692;9.332;2023-05-28T13:22:25;3.25;;;1.80;;
64597;SDS011;51004;54.692;9.332;2023-05-28T13:24:50;3.88;;;2.03;;
64597;SDS011;51004;54.692;9.332;2023-05-28T13:27:16;4.85;;;1.95;;
64597;SDS011;51004;54.692;9.332;2023-05-28T13:29:42;4.25;;;1.92;;
64597;SDS011;51004;54.692;9.332;2023-05-28T13:32:08;3.83;;;1.90;;
64597;SDS011;51004;54.692;9.332;2023-05-28T13:34:34;4.53;;;1.77;;
64597;SDS011;51004;54.692;9.332;2023-05-28T13:37:00;3.55;;;2.10;;
64597;SDS011;51004;54.692;9.332;2023-05-28T13:39:26;5.80;;;1.95;;
64597;SDS011;51004;54.692;9.332;2023-05-28T13:41:52;3.17;;;1.90;;
64597;SDS011;51004;54.692;9.332;2023-05-28T13:44:24;4.28;;;1.92;;
64597;SDS011;51004;54.692;9.332;2023-05-28T13:46:50;2.65;;;1.50;;
64597;SDS011;51004;54.692;9.332;2023-05-28T13:49:16;4.15;;;1.75;;
64597;SDS011;51004;54.692;9.332;2023-05-28T13:51:41;4.93;;;1.75;;
64597;SDS011;51004;54.692;9.332;2023-05-28T13:54:08;2.47;;;1.40;;
64597;SDS011;51004;54.692;9.332;2023-05-28T13:56:34;4.43;;;1.88;;
64597;SDS011;51004;54.692;9.332;2023-05-28T13:59:00;3.20;;;1.48;;
64597;SDS011;51004;54.692;9.332;2023-05-28T14:01:27;4.03;;;1.60;;
64597;SDS011;51004;54.692;9.332;2023-05-28T14:03:53;2.97;;;1.60;;
64597;SDS011;51004;54.692;9.332;2023-05-28T14:06:18;4.07;;;1.90;;
64597;SDS011;51004;54.692;9.332;2023-05-28T14:08:44;3.97;;;2.20;;
64597;SDS011;51004;54.692;9.332;2023-05-28T14:11:10;5.43;;;1.92;;
64597;SDS011;51004;54.692;9.332;2023-05-28T14:13:36;3.38;;;1.90;;
64597;SDS011;51004;54.692;9.332;2023-05-28T14:16:02;5.20;;;1.95;;
64597;SDS011;51004;54.692;9.332;2023-05-28T14:18:28;3.00;;;1.50;;
64597;SDS011;51004;54.692;9.332;2023-05-28T14:20:55;7.80;;;1.83;;
64597;SDS011;51004;54.692;9.332;2023-05-28T14:23:21;3.83;;;1.85;;
64597;SDS011;51004;54.692;9.332;2023-05-28T14:25:47;3.50;;;1.60;;
64597;SDS011;51004;54.692;9.332;2023-05-28T14:28:13;3.88;;;2.00;;
64597;SDS011;51004;54.692;9.332;2023-05-28T14:30:39;3.75;;;1.77;;
64597;SDS011;51004;54.692;9.332;2023-05-28T14:33:05;3.38;;;1.85;;
64597;SDS011;51004;54.692;9.332;2023-05-28T14:35:31;3.78;;;1.77;;
64597;SDS011;51004;54.692;9.332;2023-05-28T14:38:00;4.45;;;2.13;;
64597;SDS011;51004;54.692;9.332;2023-05-28T14:40:41;5.40;;;2.17;;
64597;SDS011;51004;54.692;9.332;2023-05-28T14:43:07;4.55;;;2.03;;
64597;SDS011;51004;54.692;9.332;2023-05-28T14:45:33;4.63;;;1.83;;
64597;SDS011;51004;54.692;9.332;2023-05-28T14:47:59;4.57;;;1.98;;
64597;SDS011;51004;54.692;9.332;2023-05-28T14:50:26;5.85;;;1.55;;
64597;SDS011;51004;54.692;9.332;2023-05-28T14:52:52;3.17;;;1.42;;